Accueil
METAR-TAF:

METAR-TAF

Aéroports :

Cassel, Allemagne

latitude: 51-24N, longitude: 009-23E, altitude: 277 m

Observation

Le bulletin a été fait il y a 32 minutes, à 08:20 UTC
Vent 5 kt de nord-ouest, variant entre ouest et nord/nord-ouest
Température 17°C
Humidité 100%
Pression 1016 hPa
Visibilité: 6000 m
Nuages fragmentés à une hauteur de 800 ft

METAR: EDVK 240820Z 31005KT 260V340 6000 BKN008 17/17 Q1016

Heure: 10:52 (08:52 UTC)

Prévision

Le bulletin a été fait il y a 14 minutes, à 08:38 UTC
Prévision valable du 24 à 09 UTC au 24 à 18 UTC
Vent 6 kt de ouest
Visibilité 10 km ou plus
Nuages épars à une hauteur de 800 ft
Nuages fragmentés à une hauteur de 3000 ft
Probabilité 30% :
Temporairement
du 24 à 09 UTC au 24 à 10 UTC
Nuages fragmentés à une hauteur de 800 ft

TAF: EDVK 240838Z 2409/2418 26006KT 9999 SCT008 BKN030 PROB30 TEMPO 2409/2410 BKN008

Observations et prévisions météorologiques de plus de 4000 aéroports (messages METAR et TAF).

Les stations disponibles sont représentées par des disques jaunes et rouges sur la carte.

Passer la souris dessus pour voir le nom de la station.

Cliquer dessus pour voir les observations et prévisions météorologiques.

Pour changer de carte: cliquez sur les boutons verts avec une croix noire pour zoomer, sur le bouton vert avec un tiret pour effectuer un zoom arrière, ou sur les flèches vertes pour les cartes adjacentes.


METAR-TAF: